| time (UTC) | temp C | wind direction | speed KPH | gust KPH | rain 1hr cm | rain 24hr cm | rain mn cm | humidity % | barometer mb |
| 20260507070104 | 7 | 318 | 11.3 | 16.1 | 0.00 | 2.01 | 0.03 | 86 | 1005.9 |
| 20260507064556 | 7 | 1 | 9.7 | 20.9 | 0.00 | 2.01 | 0.03 | 88 | 1006.0 |
| 20260507063052 | 8 | 356 | 9.7 | 19.3 | 0.00 | 2.01 | 0.03 | 89 | 1005.7 |
| 20260507061547 | 8 | 287 | 11.3 | 17.7 | 0.00 | 2.01 | 0.03 | 88 | 1005.4 |
| 20260507060059 | 8 | 321 | 11.3 | 17.7 | 0.00 | 2.01 | 0.03 | 89 | 1005.3 |
| 20260507054552 | 8 | 305 | 12.9 | 20.9 | 0.00 | 2.01 | 0.03 | 89 | 1005.4 |
| 20260507053050 | 8 | 340 | 11.3 | 17.7 | 0.00 | 2.01 | 0.03 | 90 | 1005.2 |
| 20260507051542 | 8 | 323 | 9.7 | 16.1 | 0.03 | 2.01 | 0.03 | 91 | 1005.1 |
| 20260507050042 | 8 | 349 | 8.0 | 12.9 | 0.03 | 2.01 | 0.03 | 92 | 1005.2 |
| 20260507044537 | 8 | 291 | 9.7 | 17.7 | 0.05 | 2.01 | 0.03 | 91 | 1005.2 |
| 20260507043033 | 8 | 286 | 12.9 | 22.5 | 0.08 | 2.01 | 0.03 | 91 | 1005.6 |
| 20260507041532 | 9 | 312 | 9.7 | 24.1 | 0.05 | 1.98 | 0.00 | 91 | 1005.4 |
| 20260507040026 | 10 | 297 | 9.7 | 17.7 | 0.08 | 1.98 | 0.00 | 92 | 1005.7 |
| 20260507034539 | 10 | 314 | 9.7 | 19.3 | 0.08 | 1.96 | 1.96 | 92 | 1005.6 |
| 20260507033022 | 10 | 342 | 9.7 | 17.7 | 0.08 | 1.93 | 1.93 | 91 | 1005.3 |
| 20260507031520 | 10 | 349 | 11.3 | 24.1 | 0.15 | 1.93 | 1.93 | 91 | 1005.1 |
| 20260507030019 | 10 | 347 | 8.0 | 19.3 | 0.15 | 1.91 | 1.91 | 91 | 1005.0 |
| 20260507024528 | 11 | 303 | 8.0 | 16.1 | 0.13 | 1.91 | 1.88 | 91 | 1004.8 |
| 20260507023010 | 11 | 305 | 8.0 | 14.5 | 0.08 | 1.85 | 1.83 | 91 | 1004.8 |
| 20260507021508 | 11 | 281 | 8.0 | 11.3 | 0.00 | 1.78 | 1.75 | 92 | 1004.9 |
| 20260507020006 | 11 | 297 | 4.8 | 11.3 | 0.00 | 1.78 | 1.75 | 91 | 1004.6 |
| 20260507014507 | 12 | 288 | 6.4 | 9.7 | 0.00 | 1.78 | 1.75 | 91 | 1004.6 |
| 20260507013004 | 12 | 287 | 3.2 | 8.0 | 0.00 | 1.78 | 1.75 | 92 | 1004.7 |
| 20260507011504 | 12 | 292 | 4.8 | 8.0 | 0.10 | 1.78 | 1.75 | 92 | 1004.8 |
| 20260507010005 | 12 | 270 | 4.8 | 8.0 | 0.13 | 1.78 | 1.75 | 92 | 1004.6 |
| 20260507004502 | 12 | 17 | 0.0 | 8.0 | 0.13 | 1.78 | 1.75 | 92 | 1004.6 |
| 20260507003001 | 13 | 89 | 1.6 | 16.1 | 0.18 | 1.78 | 1.75 | 91 | 1004.6 |
| 20260507001501 | 13 | 85 | 3.2 | 16.1 | 0.13 | 1.68 | 1.65 | 93 | 1004.4 |
| 20260507000106 | 13 | 195 | 0.0 | 0.0 | 0.18 | 1.65 | 1.63 | 94 | 1003.6 |
| 20260506234621 | 13 | 174 | 0.0 | 0.0 | 0.20 | 1.65 | 1.63 | 94 | 1003.7 |
| 20260506233104 | 13 | 167 | 0.0 | 0.0 | 0.15 | 1.60 | 1.57 | 94 | 1003.7 |
| 20260506231557 | 13 | 165 | 0.0 | 0.0 | 0.13 | 1.55 | 1.52 | 94 | 1003.8 |
| 20260506230055 | 14 | 143 | 0.0 | 0.0 | 0.05 | 1.45 | 1.42 | 94 | 1003.9 |
| 20260506224556 | 14 | 197 | 0.0 | 3.2 | 0.05 | 1.60 | 1.42 | 94 | 1004.0 |
| 20260506223058 | 14 | 192 | 0.0 | 0.0 | 0.05 | 1.60 | 1.42 | 94 | 1004.2 |
| 20260506221551 | 14 | 140 | 0.0 | 0.0 | 0.05 | 1.57 | 1.40 | 94 | 1004.4 |
| 20260506220052 | 15 | 140 | 0.0 | 0.0 | 0.03 | 1.55 | 1.37 | 94 | 1004.6 |
| 20260506214550 | 14 | 140 | 0.0 | 0.0 | 0.03 | 1.55 | 1.37 | 94 | 1004.9 |
| 20260506213045 | 14 | 136 | 0.0 | 1.6 | 0.05 | 1.55 | 1.37 | 94 | 1005.0 |
| 20260506211551 | 14 | 155 | 0.0 | 0.0 | 0.05 | 1.52 | 1.35 | 94 | 1005.1 |
| 20260506210046 | 14 | 147 | 0.0 | 0.0 | 0.10 | 1.52 | 1.35 | 94 | 1005.0 |
| 20260506204545 | 14 | 142 | 0.0 | 0.0 | 0.15 | 1.52 | 1.35 | 94 | 1005.0 |
| 20260506203044 | 14 | 160 | 0.0 | 0.0 | 0.18 | 1.50 | 1.32 | 94 | 1005.0 |
| 20260506201543 | 14 | 160 | 0.0 | 0.0 | 0.20 | 1.45 | 1.30 | 94 | 1005.0 |
| 20260506200041 | 14 | 184 | 0.0 | 0.0 | 0.18 | 1.42 | 1.24 | 94 | 1005.1 |
| 20260506194540 | 14 | 162 | 0.0 | 1.6 | 0.38 | 1.37 | 1.19 | 94 | 1005.4 |
| 20260506193037 | 14 | 206 | 0.0 | 0.0 | 0.58 | 1.32 | 1.14 | 94 | 1005.5 |
| 20260506191535 | 14 | 205 | 0.0 | 0.0 | 0.71 | 1.27 | 1.09 | 94 | 1005.7 |
| 20260506190033 | 14 | 205 | 0.0 | 0.0 | 0.86 | 1.24 | 1.07 | 93 | 1006.0 |
| 20260506184532 | 14 | 127 | 0.0 | 0.0 | 0.71 | 0.99 | 0.81 | 93 | 1006.5 |
| 20260506183031 | 14 | 66 | 0.0 | 4.8 | 0.48 | 0.71 | 0.53 | 93 | 1006.7 |
| 20260506181530 | 14 | 197 | 0.0 | 0.0 | 0.33 | 0.53 | 0.36 | 92 | 1006.4 |
| 20260506180032 | 15 | 203 | 0.0 | 8.0 | 0.18 | 0.38 | 0.20 | 92 | 1006.4 |
| 20260506174528 | 15 | 218 | 1.6 | 4.8 | 0.08 | 0.28 | 0.10 | 91 | 1006.1 |
| 20260506173026 | 15 | 207 | 0.0 | 0.0 | 0.03 | 0.23 | 0.05 | 89 | 1006.2 |
| 20260506171523 | 15 | 206 | 0.0 | 3.2 | 0.03 | 0.20 | 0.03 | 88 | 1006.7 |
| 20260506170021 | 15 | 200 | 0.0 | 1.6 | 0.03 | 0.20 | 0.03 | 89 | 1006.8 |
| 20260506164518 | 15 | 197 | 0.0 | 1.6 | 0.03 | 0.20 | 0.03 | 87 | 1007.3 |
| 20260506163017 | 15 | 204 | 0.0 | 0.0 | 0.03 | 0.20 | 0.03 | 87 | 1007.7 |
| 20260506161516 | 15 | 179 | 0.0 | 0.0 | 0.00 | 0.18 | 0.00 | 84 | 1008.0 |
| 20260506160016 | 15 | 198 | 0.0 | 3.2 | 0.00 | 0.18 | 0.00 | 81 | 1008.2 |
| 20260506154515 | 15 | 231 | 0.0 | 0.0 | 0.00 | 0.18 | 0.00 | 79 | 1008.5 |
| 20260506153014 | 15 | 169 | 0.0 | 0.0 | 0.00 | 0.18 | 0.00 | 79 | 1008.6 |
| 20260506151514 | 15 | 115 | 0.0 | 1.6 | 0.00 | 0.18 | 0.00 | 79 | 1008.5 |
| 20260506150012 | 15 | 94 | 0.0 | 3.2 | 0.00 | 0.18 | 0.00 | 79 | 1008.5 |
| 20260506144524 | 15 | 148 | 0.0 | 8.0 | 0.00 | 0.18 | 0.00 | 80 | 1008.5 |
| 20260506143008 | 15 | 158 | 0.0 | 0.0 | 0.00 | 0.18 | 0.00 | 79 | 1008.5 |
| 20260506141508 | 15 | 217 | 0.0 | 4.8 | 0.00 | 0.18 | 0.00 | 80 | 1008.4 |
| 20260506140008 | 15 | 201 | 0.0 | 3.2 | 0.00 | 0.18 | 0.00 | 81 | 1008.7 |
| 20260506134507 | 15 | 195 | 0.0 | 0.0 | 0.00 | 0.18 | 0.00 | 81 | 1008.7 |
| 20260506133005 | 15 | 214 | 0.0 | 0.0 | 0.00 | 0.18 | 0.00 | 82 | 1008.8 |
| 20260506131502 | 14 | 217 | 0.0 | 0.0 | 0.00 | 0.18 | 0.00 | 83 | 1008.8 |
| 20260506130139 | 14 | 179 | 0.0 | 0.0 | 0.00 | 0.18 | 0.00 | 84 | 1008.8 |
| 20260506124558 | 13 | 174 | 0.0 | 0.0 | 0.00 | 0.18 | 0.00 | 84 | 1009.0 |
| 20260506123058 | 13 | 204 | 0.0 | 0.0 | 0.00 | 0.18 | 0.00 | 85 | 1009.2 |
| 20260506121559 | 13 | 195 | 0.0 | 1.6 | 0.00 | 0.18 | 0.00 | 86 | 1009.4 |
| 20260506120100 | 13 | 56 | 0.0 | 3.2 | 0.00 | 0.18 | 0.00 | 86 | 1009.6 |
| 20260506114555 | 13 | 221 | 0.0 | 0.0 | 0.00 | 0.18 | 0.00 | 86 | 1009.6 |
| 20260506113055 | 13 | 198 | 0.0 | 4.8 | 0.00 | 0.18 | 0.00 | 87 | 1009.4 |
| 20260506111553 | 13 | 203 | 0.0 | 0.0 | 0.00 | 0.18 | 0.00 | 89 | 1009.5 |
| 20260506110052 | 12 | 180 | 0.0 | 0.0 | 0.00 | 0.18 | 0.00 | 91 | 1009.3 |
| 20260506104559 | 12 | 180 | 0.0 | 0.0 | 0.00 | 0.18 | 0.00 | 93 | 1009.6 |
| 20260506103049 | 11 | 155 | 0.0 | 0.0 | 0.00 | 0.18 | 0.00 | 93 | 1009.6 |
| 20260506101549 | 11 | 155 | 0.0 | 0.0 | 0.00 | 0.18 | 0.00 | 92 | 1009.2 |
| 20260506100104 | 11 | 155 | 0.0 | 0.0 | 0.00 | 0.18 | 0.00 | 92 | 1009.3 |
| 20260506094552 | 11 | 155 | 0.0 | 0.0 | 0.00 | 0.18 | 0.00 | 92 | 1009.4 |
| 20260506093046 | 11 | 155 | 0.0 | 0.0 | 0.00 | 0.18 | 0.00 | 91 | 1009.4 |
| 20260506091543 | 12 | 155 | 0.0 | 0.0 | 0.00 | 0.18 | 0.00 | 90 | 1009.2 |
| 20260506090043 | 12 | 155 | 0.0 | 0.0 | 0.00 | 0.18 | 0.00 | 89 | 1009.0 |
| 20260506084542 | 13 | 303 | 1.6 | 4.8 | 0.00 | 0.18 | 0.00 | 89 | 1009.0 |
| 20260506083040 | 13 | 239 | 1.6 | 6.4 | 0.00 | 0.18 | 0.00 | 86 | 1008.9 |
| 20260506081548 | 13 | 285 | 3.2 | 6.4 | 0.00 | 0.18 | 0.00 | 87 | 1009.0 |
| 20260506073034 | 13 | 273 | 1.6 | 8.0 | 0.00 | 0.18 | 0.00 | 91 | 1008.9 |
| 20260506071531 | 13 | 252 | 0.0 | 3.2 | 0.00 | 0.18 | 0.00 | 92 | 1008.8 |